Time;durP1;ratioP1;P1;durP2;ratioP2;P2;SDS_P1;SDS_P2;PMS_P1;PMS_P2;Temp;Humidity;BMP_temperature;BMP_pressure;BME280_temperature;BME280_humidity;BME280_pressure;Samples;Min_cycle;Max_cycle;Signal;HPM_P1;HPM_P2
2022/09/28 00:01:08;;;;;;;3.13;2.57;;;10.20;99.90;;;;;;5081838;28;20474;-70
2022/09/28 00:03:36;;;;;;;3.43;2.30;;;10.20;99.90;;;;;;5081717;28;20506;-70
2022/09/28 00:06:06;;;;;;;2.40;2.20;;;10.20;99.90;;;;;;5079461;28;20466;-70
2022/09/28 00:08:34;;;;;;;3.20;2.17;;;10.20;99.90;;;;;;5083226;28;20497;-70
2022/09/28 00:11:02;;;;;;;2.47;2.20;;;10.20;99.90;;;;;;5082362;28;20461;-70
2022/09/28 00:13:30;;;;;;;2.10;1.90;;;10.30;99.90;;;;;;5082643;28;20552;-70
2022/09/28 00:16:02;;;;;;;3.70;2.50;;;10.30;99.90;;;;;;5082559;28;20454;-70
2022/09/28 00:18:29;;;;;;;4.10;2.47;;;10.30;99.90;;;;;;5083134;28;20468;-70
2022/09/28 00:21:09;;;;;;;2.17;1.97;;;10.30;99.90;;;;;;5083044;28;20488;-69
2022/09/28 00:24:11;;;;;;;3.37;2.30;;;10.30;99.90;;;;;;5081106;28;20446;-69
2022/09/28 00:26:26;;;;;;;3.13;2.60;;;10.30;99.90;;;;;;5080238;28;20462;-69
2022/09/28 00:28:53;;;;;;;2.47;2.20;;;10.30;99.90;;;;;;5079487;28;20461;-69
2022/09/28 00:31:20;;;;;;;4.50;2.80;;;10.30;99.90;;;;;;5079002;28;20458;-68
2022/09/28 00:33:50;;;;;;;3.27;2.50;;;10.30;99.90;;;;;;5079645;28;20903;-68
2022/09/28 00:36:18;;;;;;;2.83;2.53;;;10.30;99.90;;;;;;5079505;28;20452;-69
2022/09/28 00:38:45;;;;;;;3.30;2.77;;;10.30;99.90;;;;;;5080924;28;20530;-68
2022/09/28 00:41:12;;;;;;;3.00;2.80;;;10.30;99.90;;;;;;5077747;28;20577;-69
2022/09/28 00:43:39;;;;;;;3.50;3.20;;;10.30;99.90;;;;;;5078015;28;20454;-69
2022/09/28 00:46:13;;;;;;;4.33;3.07;;;10.30;99.90;;;;;;5077056;28;20929;-68
2022/09/28 00:48:47;;;;;;;3.10;2.80;;;10.30;99.90;;;;;;5075180;28;20442;-68
2022/09/28 00:51:14;;;;;;;4.53;3.27;;;10.30;99.90;;;;;;5077308;28;20445;-68
2022/09/28 00:53:44;;;;;;;4.27;2.90;;;10.20;99.90;;;;;;5075407;28;20486;-68
2022/09/28 00:56:13;;;;;;;4.70;3.00;;;10.20;99.90;;;;;;5075398;28;20454;-69
2022/09/28 00:58:43;;;;;;;3.53;3.23;;;10.20;99.90;;;;;;5076330;28;20482;-69
2022/09/28 01:01:10;;;;;;;3.17;2.87;;;10.20;99.90;;;;;;5075764;28;20806;-68
2022/09/28 01:03:40;;;;;;;3.50;2.83;;;10.10;99.90;;;;;;5075064;28;20485;-68
2022/09/28 01:06:08;;;;;;;3.17;2.80;;;10.10;99.90;;;;;;5073587;28;20490;-68
2022/09/28 01:08:37;;;;;;;3.50;2.80;;;10.10;99.90;;;;;;5066444;28;20463;-68
2022/09/28 01:11:05;;;;;;;3.33;2.93;;;10.10;99.90;;;;;;5074755;28;20454;-68
2022/09/28 01:13:33;;;;;;;3.20;2.90;;;10.10;99.90;;;;;;5074699;28;20459;-68
2022/09/28 01:16:06;;;;;;;3.50;3.20;;;10.10;99.90;;;;;;5074752;28;20482;-68
2022/09/28 01:18:43;;;;;;;3.57;3.20;;;10.10;99.90;;;;;;5074550;28;20434;-68
2022/09/28 01:21:15;;;;;;;3.80;3.20;;;10.10;99.90;;;;;;5074606;28;20442;-68
2022/09/28 01:24:09;;;;;;;3.90;3.30;;;10.10;99.90;;;;;;5074664;28;20447;-68
2022/09/28 01:27:10;;;;;;;5.10;3.37;;;10.10;99.90;;;;;;5066403;28;20818;-68
2022/09/28 01:29:54;;;;;;;4.07;3.20;;;10.20;99.90;;;;;;5059178;28;20469;-68
2022/09/28 01:32:33;;;;;;;5.47;3.17;;;10.20;99.90;;;;;;5075155;28;20434;-68
2022/09/28 01:35:05;;;;;;;3.43;2.97;;;10.20;99.90;;;;;;5075924;28;20495;-69
2022/09/28 01:37:42;;;;;;;4.57;3.30;;;10.20;99.90;;;;;;5076022;28;20921;-69
2022/09/28 01:40:11;;;;;;;3.13;2.87;;;10.20;99.90;;;;;;5077103;28;20874;-68
2022/09/28 01:42:42;;;;;;;3.60;3.30;;;10.20;99.90;;;;;;5075953;28;20496;-68
2022/09/28 01:45:15;;;;;;;3.23;2.50;;;10.20;99.90;;;;;;5074760;28;20957;-69
2022/09/28 01:47:45;;;;;;;3.73;2.77;;;10.20;99.90;;;;;;5075097;28;20784;-69
2022/09/28 01:50:15;;;;;;;3.60;2.80;;;10.20;99.90;;;;;;5074555;28;20458;-69
2022/09/28 01:52:48;;;;;;;2.93;2.70;;;10.20;99.90;;;;;;5074712;28;20442;-69
2022/09/28 01:55:20;;;;;;;5.00;3.10;;;10.20;99.90;;;;;;5074701;28;20530;-69
2022/09/28 01:57:52;;;;;;;5.93;2.50;;;10.20;99.90;;;;;;5074421;28;20470;-69
2022/09/28 02:00:20;;;;;;;2.80;2.60;;;10.20;99.90;;;;;;5076006;28;20526;-69
2022/09/28 02:02:52;;;;;;;3.70;2.33;;;10.10;99.90;;;;;;5076333;28;20544;-69
2022/09/28 02:05:23;;;;;;;2.87;2.57;;;10.10;99.90;;;;;;5074564;28;20474;-69
2022/09/28 02:07:56;;;;;;;3.47;2.50;;;10.10;99.90;;;;;;5074378;28;20737;-69
2022/09/28 02:10:26;;;;;;;3.50;2.93;;;10.10;99.90;;;;;;5074135;28;20520;-69
2022/09/28 02:13:00;;;;;;;2.57;2.37;;;10.10;99.90;;;;;;5075016;28;20450;-69
2022/09/28 02:15:35;;;;;;;2.70;2.50;;;10.10;99.90;;;;;;5074099;28;20507;-68
2022/09/28 02:18:02;;;;;;;3.90;2.70;;;10.10;99.90;;;;;;5075385;28;20942;-69
2022/09/28 02:20:31;;;;;;;3.03;2.53;;;10.10;99.90;;;;;;5077518;28;20493;-69
2022/09/28 02:23:01;;;;;;;3.70;2.73;;;10.10;99.90;;;;;;5079249;28;20478;-69
2022/09/28 02:25:33;;;;;;;3.87;3.27;;;10.10;99.90;;;;;;5081174;28;20454;-69
2022/09/28 02:28:04;;;;;;;3.27;2.97;;;10.10;99.90;;;;;;5078255;28;20897;-69
2022/09/28 02:30:32;;;;;;;4.87;3.87;;;10.10;99.90;;;;;;5078356;28;20454;-69
2022/09/28 02:33:04;;;;;;;4.40;3.73;;;10.00;99.90;;;;;;5080985;28;20461;-69
2022/09/28 02:35:33;;;;;;;4.27;3.73;;;10.00;99.90;;;;;;5080023;28;20477;-70
2022/09/28 02:38:00;;;;;;;3.77;3.00;;;10.00;99.90;;;;;;5078842;28;20545;-70
2022/09/28 02:40:31;;;;;;;5.17;3.90;;;10.00;99.90;;;;;;5078966;28;20464;-70
2022/09/28 02:43:09;;;;;;;5.33;4.03;;;10.00;99.90;;;;;;5079576;28;20478;-70
2022/09/28 02:45:49;;;;;;;4.50;3.70;;;10.00;99.90;;;;;;5079178;28;20443;-70
2022/09/28 02:48:28;;;;;;;5.13;3.70;;;10.00;99.90;;;;;;5078603;28;20452;-70
2022/09/28 02:51:04;;;;;;;5.73;4.20;;;10.00;99.90;;;;;;5078859;28;20441;-70
2022/09/28 02:53:55;;;;;;;4.77;4.00;;;10.00;99.90;;;;;;5079046;28;20442;-70
2022/09/28 02:56:34;;;;;;;4.00;3.53;;;9.90;99.90;;;;;;5078994;28;20465;-70
2022/09/28 02:59:11;;;;;;;5.00;3.70;;;9.90;99.90;;;;;;5078259;28;20464;-70
2022/09/28 03:01:50;;;;;;;5.00;4.20;;;9.90;99.90;;;;;;5077303;28;20921;-70
2022/09/28 03:04:28;;;;;;;4.30;3.70;;;9.90;99.90;;;;;;5098640;28;20437;-70
2022/09/28 03:07:00;;;;;;;4.60;4.20;;;9.90;99.90;;;;;;5098000;28;20524;-70
2022/09/28 03:09:32;;;;;;;5.73;4.30;;;10.00;99.90;;;;;;5099020;28;20908;-70
2022/09/28 03:12:04;;;;;;;5.20;4.10;;;10.00;99.90;;;;;;5098153;28;20434;-69
2022/09/28 03:14:32;;;;;;;5.37;4.87;;;10.00;99.90;;;;;;5097044;28;20437;-69
2022/09/28 03:16:59;;;;;;;8.60;4.53;;;10.00;99.90;;;;;;5096925;28;20479;-69
2022/09/28 03:19:30;;;;;;;5.73;4.67;;;9.90;99.90;;;;;;5096750;28;20496;-69
2022/09/28 03:21:58;;;;;;;5.33;3.97;;;9.90;99.90;;;;;;5096795;28;20491;-69
2022/09/28 03:24:25;;;;;;;7.30;5.60;;;9.90;99.90;;;;;;5096973;28;20457;-69
2022/09/28 03:26:51;;;;;;;8.03;4.90;;;9.80;99.90;;;;;;5096717;28;20457;-69
2022/09/28 03:29:19;;;;;;;5.90;4.80;;;9.80;99.90;;;;;;5096049;28;20457;-69
2022/09/28 03:31:47;;;;;;;4.73;4.23;;;9.70;99.90;;;;;;5097306;28;20461;-69
2022/09/28 03:34:14;;;;;;;6.30;5.10;;;9.70;99.90;;;;;;5097410;28;20518;-70
2022/09/28 03:36:41;;;;;;;5.57;4.63;;;9.70;99.90;;;;;;5097978;28;20449;-70
2022/09/28 03:39:08;;;;;;;5.80;5.20;;;9.70;99.90;;;;;;5090534;28;28162;-70
2022/09/28 03:41:35;;;;;;;5.83;4.80;;;9.60;99.90;;;;;;5091613;28;20461;-70
2022/09/28 03:44:03;;;;;;;8.73;5.60;;;9.60;99.90;;;;;;5097854;28;20973;-70
2022/09/28 03:46:29;;;;;;;6.00;5.40;;;9.60;99.90;;;;;;5097401;28;20773;-69
2022/09/28 03:48:58;;;;;;;25.93;5.80;;;9.70;99.90;;;;;;5096211;28;20489;-68
2022/09/28 03:51:25;;;;;;;7.63;5.57;;;9.70;99.90;;;;;;5096658;28;20799;-69
2022/09/28 03:53:52;;;;;;;5.73;4.90;;;9.80;99.90;;;;;;5096384;28;20446;-70
2022/09/28 03:56:19;;;;;;;6.03;5.43;;;9.80;99.90;;;;;;5097865;28;20453;-70
2022/09/28 03:58:45;;;;;;;5.73;5.13;;;9.80;99.90;;;;;;5097440;28;20521;-70
2022/09/28 04:01:14;;;;;;;6.30;5.70;;;9.90;99.90;;;;;;5097534;28;20545;-70
2022/09/28 04:03:41;;;;;;;6.10;5.40;;;9.80;99.90;;;;;;5097588;28;20935;-70
2022/09/28 04:06:10;;;;;;;5.67;4.80;;;9.80;99.90;;;;;;5097089;28;20516;-70
2022/09/28 04:08:37;;;;;;;7.40;5.20;;;9.90;99.90;;;;;;5097380;28;20535;-70
2022/09/28 04:11:04;;;;;;;6.17;5.40;;;9.80;99.90;;;;;;5096961;28;20542;-70
2022/09/28 04:13:31;;;;;;;5.27;4.77;;;9.80;99.90;;;;;;5097581;28;20449;-70
2022/09/28 04:16:00;;;;;;;5.53;4.70;;;9.80;99.90;;;;;;5097416;28;20457;-70
2022/09/28 04:18:27;;;;;;;7.03;5.53;;;9.70;99.90;;;;;;5097663;28;20467;-70
2022/09/28 04:21:05;;;;;;;6.47;4.93;;;9.70;99.90;;;;;;5096848;28;20463;-70
2022/09/28 04:23:34;;;;;;;10.90;5.13;;;9.60;99.90;;;;;;5097208;28;20556;-70
2022/09/28 04:26:01;;;;;;;6.93;5.30;;;9.60;99.90;;;;;;5097293;28;20453;-70
2022/09/28 04:31:16;;;;;;;8.00;5.87;;;9.50;99.90;;;;;;5098947;28;20433;-69
2022/09/28 04:33:43;;;;;;;5.63;4.73;;;9.40;99.90;;;;;;5098743;28;20536;-69
2022/09/28 04:36:10;;;;;;;9.80;6.07;;;9.40;99.90;;;;;;5099807;28;20934;-69
2022/09/28 04:38:39;;;;;;;13.50;6.67;;;9.40;99.90;;;;;;5101065;28;20480;-69
2022/09/28 04:41:06;;;;;;;7.10;5.90;;;9.40;99.90;;;;;;5097457;28;20506;-69
2022/09/28 04:43:33;;;;;;;7.20;6.13;;;9.40;99.90;;;;;;5098660;28;20564;-69
2022/09/28 04:46:01;;;;;;;7.97;5.73;;;9.40;99.90;;;;;;5099426;28;20477;-69
2022/09/28 04:48:28;;;;;;;7.40;5.70;;;9.50;99.90;;;;;;5098804;28;20739;-69
2022/09/28 04:50:56;;;;;;;7.23;5.57;;;9.50;99.90;;;;;;5099144;28;20962;-69
2022/09/28 04:53:24;;;;;;;8.13;6.70;;;9.60;99.90;;;;;;5098061;28;20463;-69
2022/09/28 04:56:00;;;;;;;7.60;5.53;;;9.60;99.90;;;;;;5098600;28;20547;-69
2022/09/28 04:58:28;;;;;;;19.93;14.77;;;9.60;99.90;;;;;;5096986;28;20878;-69
2022/09/28 05:00:58;;;;;;;9.50;7.67;;;9.60;99.90;;;;;;5096911;28;20845;-69
2022/09/28 05:03:34;;;;;;;8.83;6.60;;;9.60;99.90;;;;;;5097108;28;20564;-69
2022/09/28 05:06:01;;;;;;;7.13;6.43;;;9.60;99.90;;;;;;5097139;28;20495;-70
2022/09/28 05:08:28;;;;;;;6.37;5.57;;;9.70;99.90;;;;;;5096421;28;20465;-70
2022/09/28 05:11:00;;;;;;;9.43;8.17;;;9.60;99.90;;;;;;5096499;28;20468;-70
2022/09/28 05:13:28;;;;;;;7.43;6.63;;;9.60;99.90;;;;;;5096527;28;20766;-70
2022/09/28 05:15:56;;;;;;;7.93;6.40;;;9.60;99.90;;;;;;5095407;28;20487;-69
2022/09/28 05:18:23;;;;;;;15.50;11.70;;;9.60;99.90;;;;;;5094581;28;20458;-69
2022/09/28 05:20:50;;;;;;;22.03;16.37;;;9.60;99.90;;;;;;5076127;28;20461;-69
2022/09/28 05:23:17;;;;;;;13.90;10.90;;;9.60;99.90;;;;;;5074591;28;20571;-69
2022/09/28 05:25:45;;;;;;;15.20;11.33;;;9.60;99.90;;;;;;5075701;28;20454;-70
2022/09/28 05:28:23;;;;;;;8.17;6.37;;;9.60;99.90;;;;;;5075991;28;20759;-70
2022/09/28 05:30:51;;;;;;;13.30;7.17;;;9.60;99.90;;;;;;5075813;28;20449;-70
2022/09/28 05:33:17;;;;;;;8.50;7.20;;;9.60;99.90;;;;;;5076029;28;20828;-70
2022/09/28 05:35:44;;;;;;;9.37;6.70;;;9.60;99.90;;;;;;5075310;28;20458;-70
2022/09/28 05:38:11;;;;;;;8.27;6.83;;;9.70;99.90;;;;;;5075844;28;20458;-70
2022/09/28 05:40:38;;;;;;;8.37;6.23;;;9.70;99.90;;;;;;5075586;28;20549;-70
2022/09/28 05:43:05;;;;;;;8.43;7.10;;;9.60;99.90;;;;;;5074615;28;20474;-69
2022/09/28 05:45:33;;;;;;;11.30;6.60;;;9.60;99.90;;;;;;5076108;28;20458;-69
2022/09/28 05:48:00;;;;;;;8.40;5.77;;;9.60;99.90;;;;;;5075979;28;20949;-71
2022/09/28 05:50:27;;;;;;;8.13;6.93;;;9.60;99.90;;;;;;5075191;28;20454;-69
2022/09/28 05:53:01;;;;;;;8.67;6.07;;;9.60;99.90;;;;;;5076947;28;20560;-70
2022/09/28 05:55:28;;;;;;;8.47;7.00;;;9.60;99.90;;;;;;5079559;28;20537;-70
2022/09/28 05:57:58;;;;;;;8.40;6.87;;;9.60;99.90;;;;;;5079807;28;20473;-70
2022/09/28 06:00:25;;;;;;;8.10;7.30;;;9.70;99.90;;;;;;5079815;28;20468;-70
2022/09/28 06:02:58;;;;;;;7.90;6.73;;;9.70;99.90;;;;;;5079248;28;20577;-69
2022/09/28 06:05:26;;;;;;;9.77;7.10;;;9.80;99.90;;;;;;5078743;28;20496;-70
2022/09/28 06:07:54;;;;;;;8.33;7.07;;;9.90;99.90;;;;;;5080184;28;20454;-70
2022/09/28 06:10:22;;;;;;;8.03;6.77;;;9.90;99.90;;;;;;5080303;28;20470;-70
2022/09/28 06:12:52;;;;;;;7.13;5.40;;;10.00;99.90;;;;;;5079418;28;20784;-70
2022/09/28 06:15:19;;;;;;;8.23;6.70;;;10.00;99.90;;;;;;5079700;28;20847;-71
2022/09/28 06:17:46;;;;;;;9.27;6.80;;;10.10;99.90;;;;;;5082049;28;20464;-68
2022/09/28 06:20:16;;;;;;;8.20;6.03;;;10.20;99.90;;;;;;5084209;28;20485;-70
2022/09/28 06:22:42;;;;;;;7.90;6.40;;;10.20;99.90;;;;;;5083244;28;20529;-69
2022/09/28 06:25:09;;;;;;;8.10;6.97;;;10.20;99.90;;;;;;5082566;28;20786;-69
2022/09/28 06:27:36;;;;;;;7.70;6.20;;;10.30;99.90;;;;;;5081659;28;20521;-69
2022/09/28 06:30:03;;;;;;;10.83;6.93;;;10.30;99.90;;;;;;5081724;28;20454;-69
2022/09/28 06:32:30;;;;;;;8.47;6.40;;;10.30;99.90;;;;;;5083240;28;20458;-69
2022/09/28 06:34:57;;;;;;;9.27;6.80;;;10.40;99.90;;;;;;5083953;28;20858;-69
2022/09/28 06:37:26;;;;;;;9.77;6.23;;;10.30;99.90;;;;;;5084150;28;20484;-69
2022/09/28 06:39:53;;;;;;;9.30;6.97;;;10.30;99.90;;;;;;5082852;28;20481;-69
2022/09/28 06:42:20;;;;;;;8.20;6.13;;;10.20;99.90;;;;;;5079871;28;20465;-69
2022/09/28 06:44:47;;;;;;;7.70;6.53;;;10.20;99.90;;;;;;5077073;28;20478;-69
2022/09/28 06:47:15;;;;;;;10.47;7.10;;;10.20;99.90;;;;;;5076791;28;20454;-69
2022/09/28 06:49:42;;;;;;;11.43;6.47;;;10.20;99.90;;;;;;5076958;28;20458;-68
2022/09/28 06:52:10;;;;;;;8.33;6.60;;;10.30;99.90;;;;;;5077257;28;20944;-68
2022/09/28 06:54:38;;;;;;;8.60;6.50;;;10.30;99.90;;;;;;5076829;28;20464;-68
2022/09/28 06:57:05;;;;;;;8.00;6.60;;;10.30;99.90;;;;;;5077415;28;20458;-68
2022/09/28 06:59:33;;;;;;;10.53;6.03;;;10.20;99.90;;;;;;5077014;28;20785;-68
2022/09/28 07:01:59;;;;;;;11.33;7.93;;;10.30;99.90;;;;;;5078741;28;20515;-68
2022/09/28 07:04:26;;;;;;;10.07;7.20;;;10.30;99.90;;;;;;5080701;28;20490;-69
2022/09/28 07:06:53;;;;;;;12.83;6.30;;;10.40;99.90;;;;;;5082711;28;20541;-70
2022/09/28 07:09:20;;;;;;;19.07;7.87;;;10.40;99.90;;;;;;5077040;28;20821;-70
2022/09/28 07:11:48;;;;;;;9.03;7.60;;;10.50;99.90;;;;;;5076669;28;20545;-70
2022/09/28 07:14:15;;;;;;;8.97;6.30;;;10.60;99.90;;;;;;5077147;28;20527;-68
2022/09/28 07:16:42;;;;;;;9.13;7.30;;;10.70;99.90;;;;;;5078316;28;20542;-69
2022/09/28 07:19:09;;;;;;;12.30;8.30;;;10.70;99.90;;;;;;5076998;28;20468;-70
2022/09/28 07:21:36;;;;;;;10.63;7.30;;;10.80;99.90;;;;;;5076824;28;20469;-69
2022/09/28 07:24:03;;;;;;;9.37;7.63;;;10.80;99.90;;;;;;5077103;28;20513;-69
2022/09/28 07:26:32;;;;;;;10.57;6.97;;;10.80;99.90;;;;;;5076599;28;20454;-70
2022/09/28 07:29:00;;;;;;;8.30;7.03;;;10.80;99.90;;;;;;5077025;28;20806;-69
2022/09/28 07:31:28;;;;;;;9.07;7.70;;;10.90;99.90;;;;;;5076542;28;20459;-68
2022/09/28 07:33:57;;;;;;;8.53;7.07;;;11.00;99.90;;;;;;5076284;28;20465;-69
2022/09/28 07:36:24;;;;;;;14.03;9.93;;;11.00;99.90;;;;;;5076376;28;20539;-69
2022/09/28 07:38:51;;;;;;;10.50;7.97;;;11.10;99.90;;;;;;5076361;28;20482;-70
2022/09/28 07:41:21;;;;;;;8.70;7.80;;;11.30;99.90;;;;;;5076525;28;20454;-70
2022/09/28 07:43:48;;;;;;;9.83;7.43;;;11.40;99.90;;;;;;5076669;28;20462;-70
2022/09/28 07:46:17;;;;;;;10.80;7.13;;;11.50;99.90;;;;;;5076351;28;20473;-69
2022/09/28 07:48:45;;;;;;;8.30;7.47;;;11.60;99.90;;;;;;5076807;28;20454;-69
2022/09/28 07:51:11;;;;;;;10.17;8.37;;;11.70;99.90;;;;;;5076235;28;20484;-69
2022/09/28 07:53:38;;;;;;;15.07;9.10;;;11.80;99.90;;;;;;5076326;28;20861;-70
2022/09/28 07:56:07;;;;;;;9.23;7.73;;;11.90;99.90;;;;;;5076426;28;20450;-70
2022/09/28 07:58:35;;;;;;;13.90;9.00;;;12.00;99.90;;;;;;5068235;28;20467;-70
2022/09/28 08:01:07;;;;;;;8.80;7.40;;;12.10;99.90;;;;;;5076926;28;20454;-70
2022/09/28 08:03:35;;;;;;;13.23;8.10;;;12.20;99.90;;;;;;5075698;28;20488;-69
2022/09/28 08:06:03;;;;;;;11.77;8.90;;;12.30;99.90;;;;;;5075745;28;20488;-69
2022/09/28 08:08:30;;;;;;;11.37;7.70;;;12.50;99.90;;;;;;5075544;28;20454;-68
2022/09/28 08:10:57;;;;;;;9.43;8.20;;;12.50;99.90;;;;;;5075970;28;20549;-68
2022/09/28 08:13:25;;;;;;;12.27;8.70;;;12.50;99.90;;;;;;5075252;28;20541;-70
2022/09/28 08:15:52;;;;;;;9.27;8.10;;;12.60;99.90;;;;;;5075234;28;20458;-70
2022/09/28 08:18:19;;;;;;;11.33;7.80;;;12.70;99.90;;;;;;5075564;28;20476;-70
2022/09/28 08:23:36;;;;;;;8.33;7.40;;;13.00;99.90;;;;;;5076950;28;20465;-71
2022/09/28 08:26:02;;;;;;;7.90;7.07;;;13.10;99.90;;;;;;5076817;28;20482;-70
2022/09/28 08:28:29;;;;;;;10.53;8.60;;;13.30;99.90;;;;;;5077166;28;20465;-70
2022/09/28 08:30:59;;;;;;;9.20;7.60;;;13.30;99.90;;;;;;5077502;28;20462;-69
2022/09/28 08:33:27;;;;;;;8.47;7.67;;;13.20;99.90;;;;;;5077020;28;20480;-69
2022/09/28 08:36:00;;;;;;;8.57;7.70;;;13.20;99.90;;;;;;5081248;28;20520;-69
2022/09/28 08:38:28;;;;;;;7.83;7.03;;;13.20;99.90;;;;;;5081008;28;20531;-70
2022/09/28 08:41:09;;;;;;;11.07;9.00;;;13.30;99.90;;;;;;5079832;28;20489;-70
2022/09/28 08:44:22;;;;;;;8.67;7.77;;;13.50;99.90;;;;;;5079417;28;20470;-73
2022/09/28 08:46:54;;;;;;;9.60;7.73;;;13.60;99.90;;;;;;5073799;28;20450;-71
2022/09/28 08:49:31;;;;;;;8.77;7.57;;;13.60;99.90;;;;;;5076296;28;20488;-70
2022/09/28 08:52:03;;;;;;;9.20;7.70;;;13.70;99.90;;;;;;5075328;28;20523;-70
2022/09/28 08:54:37;;;;;;;7.93;7.13;;;13.50;99.90;;;;;;5075745;28;20435;-69
2022/09/28 08:57:11;;;;;;;9.07;7.87;;;13.40;99.90;;;;;;5075147;28;20887;-70
2022/09/28 08:59:47;;;;;;;10.53;7.60;;;13.40;99.90;;;;;;5074689;28;20886;-70
2022/09/28 09:02:26;;;;;;;8.63;7.73;;;13.30;99.90;;;;;;5074699;28;20986;-69
2022/09/28 09:04:54;;;;;;;9.13;6.50;;;13.30;99.90;;;;;;5074618;28;20488;-69
2022/09/28 09:08:03;;;;;;;8.10;7.40;;;13.30;99.90;;;;;;5075021;28;20855;-70
2022/09/28 09:10:44;;;;;;;9.10;6.83;;;13.30;99.90;;;;;;5026029;28;20973;-69
2022/09/28 09:13:35;;;;;;;9.30;6.60;;;13.10;99.90;;;;;;5076158;28;20477;-69
2022/09/28 09:16:15;;;;;;;7.00;6.40;;;13.10;99.90;;;;;;5078057;28;20493;-70
2022/09/28 09:18:48;;;;;;;9.13;7.03;;;13.10;99.90;;;;;;5079335;28;20517;-69
2022/09/28 09:21:18;;;;;;;7.77;6.13;;;13.10;99.90;;;;;;5078557;28;20804;-68
2022/09/28 09:23:54;;;;;;;7.10;6.40;;;13.10;99.90;;;;;;5080674;28;20813;-68
2022/09/28 09:26:34;;;;;;;6.10;5.50;;;13.10;99.90;;;;;;5080244;28;20449;-70
2022/09/28 09:29:26;;;;;;;6.23;5.63;;;13.30;99.90;;;;;;5077027;28;20841;-70
2022/09/28 09:32:06;;;;;;;5.53;5.03;;;13.30;99.90;;;;;;5076874;28;20449;-71
2022/09/28 09:34:48;;;;;;;7.80;5.33;;;13.50;99.90;;;;;;5074848;28;20470;-69
2022/09/28 09:37:27;;;;;;;4.93;4.47;;;13.70;99.90;;;;;;5074856;28;20549;-68
2022/09/28 09:40:09;;;;;;;7.53;4.40;;;14.10;99.90;;;;;;5075226;28;20473;-70
2022/09/28 09:42:53;;;;;;;4.30;3.90;;;14.40;99.90;;;;;;5076634;28;20822;-70
2022/09/28 09:45:31;;;;;;;6.73;4.70;;;14.50;99.90;;;;;;5077588;28;20557;-70
2022/09/28 09:48:02;;;;;;;6.77;5.43;;;14.50;99.90;;;;;;5077192;28;20761;-70
2022/09/28 09:50:33;;;;;;;4.70;4.30;;;14.60;99.90;;;;;;5077828;28;20466;-69
2022/09/28 09:53:04;;;;;;;4.93;4.00;;;14.60;99.90;;;;;;5078085;28;20450;-69
2022/09/28 09:55:37;;;;;;;6.60;4.50;;;14.70;99.90;;;;;;5076245;28;20520;-68
2022/09/28 09:58:10;;;;;;;4.23;3.83;;;14.80;99.90;;;;;;5074111;28;20443;-68
2022/09/28 10:00:41;;;;;;;5.80;4.60;;;14.90;99.90;;;;;;5074327;28;20533;-68
2022/09/28 10:03:34;;;;;;;8.20;3.40;;;14.90;99.90;;;;;;5081323;28;20437;-72
2022/09/28 10:06:05;;;;;;;6.07;4.03;;;14.90;99.90;;;;;;5073886;28;20557;-69
2022/09/28 10:08:34;;;;;;;5.20;3.63;;;14.80;99.90;;;;;;5073866;28;20529;-69
2022/09/28 10:11:07;;;;;;;4.17;3.57;;;14.60;99.90;;;;;;5073687;28;20552;-69
2022/09/28 10:13:35;;;;;;;4.30;3.67;;;14.50;99.90;;;;;;5073574;28;20450;-69
2022/09/28 10:16:03;;;;;;;5.63;3.20;;;14.40;99.90;;;;;;5073789;28;20462;-69
2022/09/28 10:18:29;;;;;;;4.03;3.33;;;14.40;99.90;;;;;;5073587;28;20541;-69
2022/09/28 10:20:56;;;;;;;3.57;2.80;;;14.50;99.90;;;;;;5073951;28;20537;-69
2022/09/28 10:23:26;;;;;;;2.60;2.40;;;14.50;99.90;;;;;;5075104;28;20493;-70
2022/09/28 10:25:59;;;;;;;2.43;2.13;;;14.50;99.90;;;;;;5078646;28;20558;-70
2022/09/28 10:28:33;;;;;;;3.10;2.50;;;14.50;99.90;;;;;;5075133;28;20466;-69
2022/09/28 10:31:23;;;;;;;3.10;2.77;;;14.50;99.90;;;;;;5073882;28;20822;-69
2022/09/28 10:33:53;;;;;;;4.17;2.10;;;14.60;99.90;;;;;;5072878;28;20546;-69
2022/09/28 10:36:20;;;;;;;2.33;2.10;;;14.50;99.90;;;;;;5072783;28;20523;-69
2022/09/28 10:38:48;;;;;;;2.00;1.80;;;14.40;99.90;;;;;;5073738;28;20494;-68
2022/09/28 10:41:16;;;;;;;3.73;2.10;;;14.40;99.90;;;;;;5078580;28;20482;-71
2022/09/28 10:44:04;;;;;;;4.20;2.33;;;14.20;99.90;;;;;;5077004;28;20860;-68
2022/09/28 10:46:33;;;;;;;3.90;1.90;;;14.20;99.90;;;;;;5076877;28;20487;-67
2022/09/28 10:49:04;;;;;;;2.80;1.77;;;14.20;99.90;;;;;;5077281;28;20553;-68
2022/09/28 10:51:42;;;;;;;3.47;1.57;;;14.00;99.90;;;;;;5077547;28;20529;-68
2022/09/28 10:54:15;;;;;;;2.70;1.53;;;13.80;99.90;;;;;;5076823;28;20509;-68
2022/09/28 10:56:42;;;;;;;1.80;1.57;;;13.70;99.90;;;;;;5077059;28;20448;-69
2022/09/28 10:59:37;;;;;;;3.97;1.80;;;13.60;99.90;;;;;;5078338;28;20454;-69
2022/09/28 11:02:18;;;;;;;2.83;1.40;;;13.70;99.90;;;;;;5078203;28;20541;-69
2022/09/28 11:04:52;;;;;;;1.57;1.30;;;13.70;99.90;;;;;;5077308;28;20568;-68
2022/09/28 11:07:25;;;;;;;2.07;1.77;;;13.70;99.90;;;;;;5076913;28;20532;-69
2022/09/28 11:09:53;;;;;;;3.87;1.57;;;13.80;99.90;;;;;;5077497;28;20527;-68
2022/09/28 11:12:23;;;;;;;3.50;1.70;;;13.90;99.90;;;;;;5078767;28;20911;-69
2022/09/28 11:14:55;;;;;;;2.43;1.43;;;14.20;99.90;;;;;;5078996;28;20541;-71
2022/09/28 11:17:28;;;;;;;1.50;1.20;;;14.40;99.90;;;;;;5079568;28;20482;-71
2022/09/28 11:19:58;;;;;;;2.57;1.40;;;14.50;99.90;;;;;;5078168;28;20454;-70
2022/09/28 11:22:28;;;;;;;2.37;1.20;;;14.60;99.90;;;;;;5076456;28;20454;-69
2022/09/28 11:25:21;;;;;;;1.70;1.60;;;14.70;99.90;;;;;;5076555;28;20462;-68
2022/09/28 11:28:00;;;;;;;2.53;1.70;;;14.70;99.90;;;;;;5076812;28;20449;-68
2022/09/28 11:30:33;;;;;;;2.93;1.37;;;14.80;99.90;;;;;;5076811;28;20504;-69
2022/09/28 11:33:08;;;;;;;2.13;1.00;;;14.90;99.90;;;;;;5077779;28;20460;-70
2022/09/28 11:35:46;;;;;;;2.80;1.07;;;14.90;99.90;;;;;;5076376;28;20917;-69
2022/09/28 11:38:32;;;;;;;4.80;1.67;;;14.70;99.90;;;;;;5076734;28;20442;-70
2022/09/28 11:41:17;;;;;;;1.53;1.40;;;14.70;99.90;;;;;;5076606;28;20443;-69
2022/09/28 11:44:00;;;;;;;1.80;1.67;;;15.00;99.90;;;;;;5076465;28;20466;-70
2022/09/28 11:46:33;;;;;;;1.63;1.47;;;15.20;99.90;;;;;;5077145;28;20466;-68
2022/09/28 11:49:07;;;;;;;1.93;1.70;;;15.20;99.90;;;;;;5076131;28;20465;-69
2022/09/28 11:51:40;;;;;;;2.37;1.87;;;15.00;99.90;;;;;;5074718;28;20446;-69
2022/09/28 11:54:14;;;;;;;1.60;1.50;;;14.80;99.90;;;;;;5077023;28;20534;-68
2022/09/28 11:56:44;;;;;;;2.20;1.93;;;14.70;99.90;;;;;;5077392;28;20451;-69
2022/09/28 11:59:15;;;;;;;4.60;1.73;;;14.30;99.90;;;;;;5079759;28;20764;-69
2022/09/28 12:01:47;;;;;;;1.80;1.70;;;14.00;99.90;;;;;;5078708;28;20438;-70
2022/09/28 12:04:17;;;;;;;3.05;1.80;;;13.90;99.90;;;;;;5077769;28;20474;-70
2022/09/28 12:06:50;;;;;;;2.63;2.10;;;13.80;99.90;;;;;;5078973;28;20448;-70
2022/09/28 12:09:22;;;;;;;1.40;1.30;;;13.90;99.90;;;;;;5076971;28;20449;-70
2022/09/28 12:11:54;;;;;;;1.60;1.10;;;14.50;99.90;;;;;;5078045;28;20837;-69
2022/09/28 12:14:28;;;;;;;2.17;1.10;;;14.90;99.90;;;;;;5078135;28;20533;-69
2022/09/28 12:17:01;;;;;;;2.33;1.50;;;15.20;99.90;;;;;;5077726;28;20529;-70
2022/09/28 12:19:33;;;;;;;3.13;1.23;;;15.60;99.90;;;;;;5077384;28;20468;-70
2022/09/28 12:22:05;;;;;;;2.60;1.10;;;15.90;99.90;;;;;;5077493;28;20438;-69
2022/09/28 12:24:37;;;;;;;1.50;1.00;;;16.20;99.90;;;;;;5077660;28;20466;-70
2022/09/28 12:27:11;;;;;;;2.70;1.20;;;16.40;99.90;;;;;;5077929;28;20510;-70
2022/09/28 12:29:41;;;;;;;1.77;1.20;;;16.40;99.90;;;;;;5078167;28;20439;-70
2022/09/28 12:32:15;;;;;;;1.70;1.10;;;16.40;99.90;;;;;;5078500;28;20462;-72
2022/09/28 12:34:42;;;;;;;1.60;1.00;;;16.30;99.90;;;;;;5077573;28;20739;-69
2022/09/28 12:37:28;;;;;;;1.70;1.20;;;16.20;99.90;;;;;;5076092;28;20549;-69
2022/09/28 12:40:27;;;;;;;3.63;1.10;;;16.00;99.90;;;;;;5076174;28;20445;-70
2022/09/28 12:43:16;;;;;;;1.50;1.10;;;15.90;99.90;;;;;;5069960;28;20474;-69
2022/09/28 12:46:17;;;;;;;1.77;1.30;;;15.90;99.90;;;;;;5076155;28;20466;-69
2022/09/28 12:49:06;;;;;;;1.53;1.20;;;15.70;99.90;;;;;;5075664;28;20478;-68
2022/09/28 12:51:45;;;;;;;1.23;0.97;;;15.40;99.90;;;;;;5072194;28;20916;-68
2022/09/28 12:54:33;;;;;;;1.53;1.00;;;15.20;99.90;;;;;;5075639;28;20545;-68
2022/09/28 12:57:14;;;;;;;4.90;1.00;;;15.00;99.90;;;;;;5076002;28;20441;-68
2022/09/28 12:59:54;;;;;;;1.10;0.80;;;14.80;99.90;;;;;;5076330;28;20453;-69
2022/09/28 13:02:45;;;;;;;2.07;0.90;;;14.40;99.90;;;;;;5076311;28;20504;-70
2022/09/28 13:05:45;;;;;;;1.50;1.10;;;14.30;99.90;;;;;;5075820;28;20986;-70
2022/09/28 13:08:22;;;;;;;1.27;0.93;;;14.20;99.90;;;;;;5076377;28;20517;-69
2022/09/28 13:10:59;;;;;;;1.30;1.00;;;14.20;99.90;;;;;;5077589;28;20592;-69
2022/09/28 13:13:38;;;;;;;1.33;1.07;;;14.10;99.90;;;;;;5077126;28;20804;-70
2022/09/28 13:16:12;;;;;;;1.70;1.50;;;14.00;99.90;;;;;;5077527;28;20922;-69
2022/09/28 13:18:45;;;;;;;1.20;1.03;;;14.00;99.90;;;;;;5078467;28;20472;-70